createdAt,value
2018-04-01T00:01:42.061Z,16.27
2018-04-01T00:04:08.823Z,16.60
2018-04-01T00:06:35.714Z,16.70
2018-04-01T00:09:02.514Z,17.00
2018-04-01T00:11:29.302Z,16.27
2018-04-01T00:13:56.060Z,16.70
2018-04-01T00:16:22.995Z,16.97
2018-04-01T00:18:49.806Z,17.90
2018-04-01T00:21:16.693Z,18.30
2018-04-01T00:23:43.386Z,17.93
2018-04-01T00:26:10.176Z,17.97
2018-04-01T00:28:36.900Z,17.70
2018-04-01T00:31:03.827Z,17.90
2018-04-01T00:33:30.597Z,17.43
2018-04-01T00:35:57.528Z,16.73
2018-04-01T00:38:24.780Z,16.70
2018-04-01T00:40:51.552Z,16.67
2018-04-01T00:43:18.231Z,16.73
2018-04-01T00:45:44.962Z,16.83
2018-04-01T00:48:11.640Z,17.13
2018-04-01T00:50:38.304Z,17.27
2018-04-01T00:53:05.106Z,17.10
2018-04-01T00:55:31.823Z,19.00
2018-04-01T00:57:58.670Z,17.93
2018-04-01T01:00:25.456Z,17.30
2018-04-01T01:02:52.169Z,16.50
2018-04-01T01:05:18.957Z,17.13
2018-04-01T01:07:45.702Z,17.53
2018-04-01T01:10:12.346Z,16.40
2018-04-01T01:12:39.137Z,17.70
2018-04-01T01:15:05.959Z,17.67
2018-04-01T01:17:32.703Z,18.27
2018-04-01T01:19:59.358Z,16.67
2018-04-01T01:22:26.118Z,17.47
2018-04-01T01:24:52.826Z,17.80
2018-04-01T01:27:19.621Z,17.93
2018-04-01T01:29:46.345Z,18.17
2018-04-01T01:32:13.041Z,17.67
2018-04-01T01:34:39.795Z,17.33
2018-04-01T01:37:06.681Z,16.47
2018-04-01T01:39:33.482Z,16.57
2018-04-01T01:42:00.218Z,13.87
2018-04-01T01:44:26.893Z,11.47
2018-04-01T01:46:53.708Z,11.37
2018-04-01T01:49:20.506Z,10.70
2018-04-01T01:51:47.179Z,10.50
2018-04-01T01:54:13.874Z,9.97
2018-04-01T01:56:40.766Z,10.17
2018-04-01T01:59:07.738Z,9.00
2018-04-01T02:01:34.541Z,9.87
2018-04-01T02:04:01.205Z,9.43
2018-04-01T02:06:28.069Z,9.13
2018-04-01T02:08:54.720Z,8.97
2018-04-01T02:11:21.588Z,9.07
2018-04-01T02:13:48.294Z,8.83
2018-04-01T02:16:15.202Z,8.27
2018-04-01T02:18:41.894Z,8.47
2018-04-01T02:21:08.694Z,8.43
2018-04-01T02:23:35.584Z,9.30
2018-04-01T02:26:02.476Z,8.37
2018-04-01T02:28:29.133Z,8.50
2018-04-01T02:30:55.968Z,9.13
2018-04-01T02:33:22.788Z,9.03
2018-04-01T02:35:49.608Z,9.33
2018-04-01T02:38:16.258Z,9.40
2018-04-01T02:40:42.914Z,9.17
2018-04-01T02:43:09.848Z,9.03
2018-04-01T02:45:36.726Z,9.70
2018-04-01T02:48:03.507Z,9.00
2018-04-01T02:50:30.177Z,9.20
2018-04-01T02:52:57.059Z,9.80
2018-04-01T02:55:23.776Z,9.37
2018-04-01T02:57:50.519Z,8.33
2018-04-01T03:00:17.153Z,9.17
2018-04-01T03:02:43.836Z,9.30
2018-04-01T03:05:10.513Z,9.00
2018-04-01T03:07:37.363Z,9.17
2018-04-01T03:10:04.033Z,8.87
2018-04-01T03:12:30.802Z,9.03
2018-04-01T03:14:57.582Z,9.40
2018-04-01T03:17:24.266Z,8.67
2018-04-01T03:19:50.991Z,9.57
2018-04-01T03:22:17.668Z,9.77
2018-04-01T03:24:44.282Z,10.03
2018-04-01T03:27:10.948Z,10.33
2018-04-01T03:29:37.814Z,9.93
2018-04-01T03:32:04.435Z,9.40
2018-04-01T03:34:31.231Z,9.40
2018-04-01T03:36:58.019Z,9.37
2018-04-01T03:39:24.824Z,10.07
2018-04-01T03:41:51.500Z,10.23
2018-04-01T03:44:18.307Z,10.60
2018-04-01T03:46:44.940Z,9.63
2018-04-01T03:49:11.706Z,9.47
2018-04-01T03:51:38.403Z,10.10
2018-04-01T03:54:05.360Z,10.23
2018-04-01T03:56:32.210Z,10.43
2018-04-01T03:58:58.940Z,9.97
2018-04-01T04:01:25.706Z,11.20
2018-04-01T04:03:52.488Z,11.37
2018-04-01T04:06:19.333Z,10.30
2018-04-01T04:08:46.214Z,10.07
2018-04-01T04:11:13.167Z,10.77
2018-04-01T04:13:39.913Z,10.67
2018-04-01T04:16:06.966Z,11.50
2018-04-01T04:18:33.739Z,10.77
2018-04-01T04:21:00.798Z,10.77
2018-04-01T04:23:27.471Z,10.43
2018-04-01T04:25:54.305Z,11.60
2018-04-01T04:28:21.041Z,11.07
2018-04-01T04:30:47.972Z,11.63
2018-04-01T04:33:14.643Z,10.07
2018-04-01T04:35:41.350Z,10.70
2018-04-01T04:38:08.106Z,10.93
2018-04-01T04:40:34.846Z,11.07
2018-04-01T04:43:01.647Z,10.77
2018-04-01T04:45:28.337Z,10.37
2018-04-01T04:47:55.157Z,10.30
2018-04-01T04:50:21.898Z,10.03
2018-04-01T04:52:48.570Z,10.30
2018-04-01T04:55:15.253Z,9.87
2018-04-01T04:57:41.984Z,10.60
2018-04-01T05:00:08.651Z,10.73
2018-04-01T05:02:35.366Z,9.90
2018-04-01T05:05:02.148Z,9.60
2018-04-01T05:07:28.891Z,9.77
2018-04-01T05:09:55.534Z,9.57
2018-04-01T05:12:22.305Z,9.03
2018-04-01T05:14:49.113Z,9.70
2018-04-01T05:17:15.774Z,9.50
2018-04-01T05:19:42.553Z,9.67
2018-04-01T05:22:09.262Z,8.57
2018-04-01T05:24:36.087Z,9.20
2018-04-01T05:27:02.739Z,8.67
2018-04-01T05:29:29.458Z,9.13
2018-04-01T05:31:56.136Z,8.77
2018-04-01T05:34:22.858Z,8.53
2018-04-01T05:36:49.552Z,8.00
2018-04-01T05:39:16.191Z,8.50
2018-04-01T05:41:42.859Z,8.13
2018-04-01T05:44:09.669Z,8.73
2018-04-01T05:46:36.378Z,8.60
2018-04-01T05:49:03.160Z,9.47
2018-04-01T05:51:30.003Z,8.77
2018-04-01T05:53:56.644Z,9.40
2018-04-01T05:56:24.856Z,8.93
2018-04-01T05:58:51.643Z,8.33
2018-04-01T06:01:18.278Z,8.23
2018-04-01T06:03:44.887Z,8.73
2018-04-01T06:06:11.751Z,8.27
2018-04-01T06:08:38.550Z,8.37
2018-04-01T06:11:05.288Z,7.83
2018-04-01T06:13:31.922Z,8.40
2018-04-01T06:15:58.611Z,8.43
2018-04-01T06:18:25.245Z,8.40
2018-04-01T06:20:52.000Z,8.50
2018-04-01T06:23:18.736Z,8.73
2018-04-01T06:25:45.368Z,9.07
2018-04-01T06:28:12.041Z,10.00
2018-04-01T06:30:38.735Z,9.20
2018-04-01T06:33:05.511Z,8.93
2018-04-01T06:35:32.128Z,9.60
2018-04-01T06:37:58.774Z,9.23
2018-04-01T06:40:25.484Z,10.00
2018-04-01T06:42:52.138Z,8.40
2018-04-01T06:45:19.491Z,9.40
2018-04-01T06:47:46.117Z,9.87
2018-04-01T06:50:12.736Z,9.43
2018-04-01T06:52:39.369Z,9.30
2018-04-01T06:55:06.104Z,9.77
2018-04-01T06:57:32.757Z,8.70
2018-04-01T06:59:59.388Z,8.80
2018-04-01T07:02:26.087Z,9.43
2018-04-01T07:04:52.728Z,9.23
2018-04-01T07:07:19.396Z,9.27
2018-04-01T07:09:46.051Z,9.43
2018-04-01T07:12:12.823Z,8.47
2018-04-01T07:14:39.452Z,8.70
2018-04-01T07:17:07.010Z,9.10
2018-04-01T07:19:33.805Z,8.00
2018-04-01T07:22:00.712Z,8.37
2018-04-01T07:24:27.391Z,7.87
2018-04-01T07:26:54.339Z,8.13
2018-04-01T07:29:21.016Z,8.70
2018-04-01T07:31:47.606Z,8.40
2018-04-01T07:34:14.263Z,8.20
2018-04-01T07:36:41.028Z,8.03
2018-04-01T07:39:07.700Z,7.50
2018-04-01T07:41:34.399Z,8.50
2018-04-01T07:44:01.896Z,7.37
2018-04-01T07:46:28.656Z,7.67
2018-04-01T07:48:55.344Z,8.20
2018-04-01T07:51:22.074Z,8.50
2018-04-01T07:53:48.722Z,7.90
2018-04-01T07:56:15.449Z,8.37
2018-04-01T07:58:42.092Z,7.70
2018-04-01T08:01:08.823Z,7.47
2018-04-01T08:03:35.482Z,7.50
2018-04-01T08:06:02.187Z,7.63
2018-04-01T08:08:28.894Z,7.50
2018-04-01T08:10:55.535Z,8.27
2018-04-01T08:13:22.177Z,7.70
2018-04-01T08:15:48.832Z,7.27
2018-04-01T08:18:15.524Z,7.50
2018-04-01T08:20:42.144Z,6.97
2018-04-01T08:23:08.783Z,7.20
2018-04-01T08:25:35.417Z,8.20
2018-04-01T08:28:02.054Z,7.77
2018-04-01T08:30:28.732Z,7.13
2018-04-01T08:32:55.400Z,7.67
2018-04-01T08:35:22.079Z,7.40
2018-04-01T08:37:48.718Z,7.77
2018-04-01T08:40:15.487Z,8.30
2018-04-01T08:42:42.190Z,8.10
2018-04-01T08:45:08.818Z,9.07
2018-04-01T08:47:35.538Z,8.10
2018-04-01T08:50:02.286Z,8.07
2018-04-01T08:52:29.004Z,8.23
2018-04-01T08:54:55.635Z,7.53
2018-04-01T08:57:22.283Z,8.00
2018-04-01T08:59:48.980Z,7.77
2018-04-01T09:02:15.884Z,8.10
2018-04-01T09:04:42.615Z,8.07
2018-04-01T09:07:09.518Z,8.57
2018-04-01T09:09:36.212Z,8.37
2018-04-01T09:12:03.039Z,8.13
2018-04-01T09:14:29.697Z,8.53
2018-04-01T09:16:56.503Z,8.70
2018-04-01T09:19:23.186Z,9.03
2018-04-01T09:21:49.925Z,9.13
2018-04-01T09:24:16.679Z,9.10
2018-04-01T09:26:43.469Z,9.10
2018-04-01T09:29:10.286Z,8.73
2018-04-01T09:31:36.954Z,9.10
2018-04-01T09:34:03.615Z,9.20
2018-04-01T09:36:30.516Z,10.10
2018-04-01T09:38:57.346Z,10.30
2018-04-01T09:41:24.208Z,10.00
2018-04-01T09:43:51.109Z,10.33
2018-04-01T09:46:17.753Z,10.30
2018-04-01T09:48:44.384Z,11.00
2018-04-01T09:51:11.181Z,10.70
2018-04-01T09:53:38.035Z,10.53
2018-04-01T09:56:04.760Z,10.77
2018-04-01T09:58:31.567Z,11.47
2018-04-01T10:01:00.760Z,10.73
2018-04-01T10:03:27.834Z,11.30
2018-04-01T10:05:54.800Z,10.67
2018-04-01T10:08:21.722Z,10.43
2018-04-01T10:10:48.859Z,10.07
2018-04-01T10:13:15.707Z,9.50
2018-04-01T10:15:42.620Z,9.70
2018-04-01T10:18:09.547Z,9.93
2018-04-01T10:20:36.441Z,9.27
2018-04-01T10:23:03.388Z,9.97
2018-04-01T10:25:30.504Z,10.27
2018-04-01T10:27:57.375Z,9.67
2018-04-01T10:30:24.356Z,9.27
2018-04-01T10:32:51.441Z,7.97
2018-04-01T10:35:18.464Z,7.70
2018-04-01T10:37:45.413Z,7.97
2018-04-01T10:40:12.422Z,7.70
2018-04-01T10:42:39.457Z,8.00
2018-04-01T10:45:06.478Z,7.63
2018-04-01T10:47:33.844Z,8.40
2018-04-01T10:50:00.801Z,6.90
2018-04-01T10:52:27.870Z,6.07
2018-04-01T10:54:54.811Z,5.37
2018-04-01T10:57:21.667Z,4.90
2018-04-01T10:59:48.437Z,4.70
2018-04-01T11:02:15.106Z,5.20
2018-04-01T11:04:41.838Z,4.60
2018-04-01T11:07:08.696Z,4.70
2018-04-01T11:09:35.452Z,3.40
2018-04-01T11:12:02.209Z,3.20
2018-04-01T11:14:29.110Z,2.90
2018-04-01T11:16:55.888Z,2.37
2018-04-01T11:19:22.871Z,3.00
2018-04-01T11:21:49.683Z,2.73
2018-04-01T11:24:16.390Z,2.80
2018-04-01T11:26:43.437Z,2.80
2018-04-01T11:29:10.199Z,3.00
2018-04-01T11:31:37.068Z,2.90
2018-04-01T11:34:03.858Z,2.93
2018-04-01T11:36:30.718Z,3.03
2018-04-01T11:38:57.696Z,3.00
2018-04-01T11:41:24.781Z,2.60
2018-04-01T11:50:05.159Z,2.10
2018-04-01T11:52:32.125Z,2.00
2018-04-01T11:54:58.964Z,1.97
2018-04-01T11:57:25.886Z,2.00
2018-04-01T11:59:52.854Z,1.83
2018-04-01T12:02:19.791Z,1.77
2018-04-01T12:04:46.674Z,1.30
2018-04-01T12:07:13.553Z,1.70
2018-04-01T12:09:40.301Z,1.57
2018-04-01T12:12:07.203Z,2.00
2018-04-01T12:14:34.052Z,1.70
2018-04-01T12:17:00.832Z,1.60
2018-04-01T12:19:27.730Z,1.70
2018-04-01T12:21:54.475Z,1.77
2018-04-01T12:24:21.154Z,1.40
2018-04-01T12:26:47.953Z,1.40
2018-04-01T12:29:14.727Z,1.67
2018-04-01T12:31:41.509Z,1.80
2018-04-01T12:34:08.315Z,1.70
2018-04-01T12:36:35.035Z,1.80
2018-04-01T12:39:01.733Z,1.73
2018-04-01T12:41:28.584Z,2.10
2018-04-01T12:43:55.453Z,1.80
2018-04-01T12:46:22.266Z,1.93
2018-04-01T12:48:48.951Z,1.80
2018-04-01T12:51:15.807Z,1.80
2018-04-01T12:53:42.724Z,2.00
2018-04-01T12:56:09.524Z,1.90
2018-04-01T12:58:36.501Z,2.07
2018-04-01T13:01:03.358Z,1.93
2018-04-01T13:03:30.026Z,2.10
2018-04-01T13:05:57.055Z,2.10
2018-04-01T13:08:23.833Z,2.03
2018-04-01T13:10:50.615Z,1.93
2018-04-01T13:13:17.263Z,1.60
2018-04-01T13:15:44.153Z,1.87
2018-04-01T13:18:10.915Z,2.10
2018-04-01T13:20:37.682Z,1.80
2018-04-01T13:23:04.362Z,1.87
2018-04-01T13:25:31.080Z,1.83
2018-04-01T13:27:57.928Z,1.80
2018-04-01T13:30:24.717Z,1.40
2018-04-01T13:32:51.406Z,1.60
2018-04-01T13:35:18.265Z,1.90
2018-04-01T13:37:45.057Z,1.83
2018-04-01T13:40:11.749Z,1.80
2018-04-01T13:42:38.539Z,1.93
2018-04-01T13:45:05.303Z,2.00
2018-04-01T13:47:32.184Z,2.20
2018-04-01T13:49:58.956Z,1.90
2018-04-01T13:52:25.757Z,1.70
2018-04-01T13:54:52.664Z,1.67
2018-04-01T13:57:19.389Z,1.70
2018-04-01T13:59:46.250Z,1.60
2018-04-01T14:02:12.959Z,1.67
2018-04-01T14:04:39.732Z,1.70
2018-04-01T14:07:06.487Z,1.57
2018-04-01T14:09:33.295Z,1.70
2018-04-01T14:11:59.985Z,1.70
2018-04-01T14:14:26.911Z,1.40
2018-04-01T14:16:53.709Z,1.63
2018-04-01T14:19:20.479Z,1.60
2018-04-01T14:21:47.201Z,1.50
2018-04-01T14:24:13.922Z,1.60
2018-04-01T14:26:40.730Z,1.67
2018-04-01T14:29:07.473Z,1.43
2018-04-01T14:31:34.324Z,1.53
2018-04-01T14:34:01.130Z,1.50
2018-04-01T14:36:27.958Z,1.53
2018-04-01T14:38:54.755Z,1.40
2018-04-01T14:41:21.746Z,1.50
2018-04-01T14:43:48.583Z,1.30
2018-04-01T14:46:15.386Z,1.60
2018-04-01T14:48:42.284Z,1.50
2018-04-01T14:51:09.111Z,1.50
2018-04-01T14:53:35.964Z,1.43
2018-04-01T14:56:02.904Z,1.70
2018-04-01T14:58:29.609Z,1.60
2018-04-01T15:00:56.483Z,1.70
2018-04-01T15:03:23.262Z,1.50
2018-04-01T15:05:50.039Z,1.30
2018-04-01T15:08:16.727Z,1.70
2018-04-01T15:10:43.562Z,1.70
2018-04-01T15:13:10.379Z,1.30
2018-04-01T15:15:37.126Z,1.87
2018-04-01T15:18:04.089Z,1.57
2018-04-01T15:20:30.875Z,1.80
2018-04-01T15:22:57.575Z,1.90
2018-04-01T15:25:24.553Z,2.60
2018-04-01T15:27:51.429Z,3.10
2018-04-01T15:30:18.319Z,3.10
2018-04-01T15:32:45.103Z,2.77
2018-04-01T15:35:11.868Z,2.77
2018-04-01T15:37:38.770Z,2.50
2018-04-01T15:40:05.683Z,2.50
2018-04-01T15:42:32.710Z,2.50
2018-04-01T15:44:59.628Z,2.40
2018-04-01T15:47:26.443Z,2.30
2018-04-01T15:49:53.357Z,2.10
2018-04-01T15:52:20.180Z,2.07
2018-04-01T15:54:47.187Z,2.20
2018-04-01T15:57:14.094Z,2.20
2018-04-01T15:59:40.951Z,2.20
2018-04-01T16:02:07.986Z,2.27
2018-04-01T16:04:35.039Z,2.20
2018-04-01T16:07:01.924Z,2.10
2018-04-01T16:09:28.728Z,2.23
2018-04-01T16:11:55.781Z,2.27
2018-04-01T16:14:24.064Z,2.20
2018-04-01T16:16:50.923Z,2.20
2018-04-01T16:19:17.706Z,2.13
2018-04-01T16:21:44.642Z,1.90
2018-04-01T16:24:11.654Z,1.80
2018-04-01T16:26:38.542Z,1.80
2018-04-01T16:29:05.470Z,1.90
2018-04-01T16:31:32.419Z,1.83
2018-04-01T16:33:59.165Z,1.67
2018-04-01T16:36:26.170Z,1.60
2018-04-01T16:38:53.001Z,1.80
2018-04-01T16:41:19.808Z,1.50
2018-04-01T16:43:46.604Z,1.40
2018-04-01T16:46:13.373Z,1.70
2018-04-01T16:48:40.147Z,1.50
2018-04-01T16:51:06.913Z,1.70
2018-04-01T16:53:33.752Z,1.60
2018-04-01T16:56:00.600Z,1.83
2018-04-01T16:58:27.323Z,1.70
2018-04-01T17:00:53.977Z,1.97
2018-04-01T17:03:20.950Z,1.90
2018-04-01T17:05:48.857Z,2.20
2018-04-01T17:08:15.606Z,2.13
2018-04-01T17:10:42.522Z,2.00
2018-04-01T17:13:09.373Z,2.23
2018-04-01T17:15:36.233Z,2.23
2018-04-01T17:18:02.966Z,2.40
2018-04-01T17:20:29.804Z,2.00
2018-04-01T17:22:56.547Z,2.00
2018-04-01T17:25:23.408Z,2.00
2018-04-01T17:27:50.316Z,2.37
2018-04-01T17:30:17.284Z,2.40
2018-04-01T17:32:44.206Z,2.20
2018-04-01T17:35:10.952Z,2.03
2018-04-01T17:37:37.968Z,2.30
2018-04-01T17:40:04.713Z,2.37
2018-04-01T17:42:31.657Z,1.97
2018-04-01T17:44:58.499Z,1.90
2018-04-01T17:47:25.371Z,1.90
2018-04-01T17:49:52.263Z,1.80
2018-04-01T17:52:19.309Z,1.50
2018-04-01T17:54:46.294Z,1.30
2018-04-01T17:57:13.219Z,1.10
2018-04-01T17:59:40.066Z,1.37
2018-04-01T18:02:06.966Z,1.20
2018-04-01T18:04:33.753Z,1.40
2018-04-01T18:07:00.655Z,1.20
2018-04-01T18:09:27.491Z,1.10
2018-04-01T18:11:54.768Z,1.10
2018-04-01T18:14:21.446Z,1.03
2018-04-01T18:16:48.474Z,1.00
2018-04-01T18:19:15.326Z,0.87
2018-04-01T18:21:42.282Z,11.67
2018-04-01T18:24:09.104Z,7.10
2018-04-01T18:26:35.977Z,7.47
2018-04-01T18:29:02.861Z,39.53
2018-04-01T18:31:29.586Z,39.07
2018-04-01T18:33:56.476Z,20.77
2018-04-01T18:36:23.397Z,13.27
2018-04-01T18:38:50.193Z,22.90
2018-04-01T18:41:17.484Z,9.23
2018-04-01T18:43:44.378Z,5.10
2018-04-01T18:46:11.215Z,1.20
2018-04-01T18:48:38.070Z,4.97
2018-04-01T18:51:04.960Z,1.40
2018-04-01T18:53:31.762Z,0.90
2018-04-01T18:55:58.651Z,1.10
2018-04-01T18:58:25.452Z,0.80
2018-04-01T19:00:52.395Z,0.93
2018-04-01T19:03:19.190Z,1.00
2018-04-01T19:05:47.386Z,1.00
2018-04-01T19:08:14.099Z,1.03
2018-04-01T19:10:40.847Z,1.10
2018-04-01T19:13:07.595Z,1.00
2018-04-01T19:15:34.447Z,1.10
2018-04-01T19:18:01.435Z,1.03
2018-04-01T19:20:28.567Z,1.40
2018-04-01T19:22:55.639Z,1.10
2018-04-01T19:25:22.645Z,1.10
2018-04-01T19:27:49.520Z,1.50
2018-04-01T19:30:16.649Z,1.33
2018-04-01T19:32:43.486Z,1.50
2018-04-01T19:35:10.332Z,1.70
2018-04-01T19:37:37.463Z,1.60
2018-04-01T19:40:04.466Z,1.80
2018-04-01T19:42:31.651Z,1.60
2018-04-01T19:44:58.568Z,1.90
2018-04-01T19:47:25.510Z,2.03
2018-04-01T19:49:52.414Z,2.00
2018-04-01T19:52:19.381Z,1.73
2018-04-01T19:54:46.292Z,1.60
2018-04-01T19:57:13.210Z,2.23
2018-04-01T19:59:47.010Z,2.03
2018-04-01T20:02:14.471Z,2.10
2018-04-01T20:04:41.526Z,2.43
2018-04-01T20:07:08.524Z,2.47
2018-04-01T20:09:35.603Z,2.30
2018-04-01T20:12:02.539Z,2.30
2018-04-01T20:14:29.446Z,2.07
2018-04-01T20:16:56.419Z,2.57
2018-04-01T20:19:23.270Z,13.07
2018-04-01T20:21:50.209Z,6.83
2018-04-01T20:24:17.289Z,39.73
2018-04-01T20:26:44.231Z,30.47
2018-04-01T20:29:11.159Z,43.17
2018-04-01T20:31:38.089Z,22.00
2018-04-01T20:34:04.959Z,14.87
2018-04-01T20:36:31.852Z,6.50
2018-04-01T20:38:58.910Z,3.50
2018-04-01T20:41:26.036Z,2.47
2018-04-01T20:43:52.917Z,5.80
2018-04-01T20:46:19.848Z,3.13
2018-04-01T20:48:46.850Z,5.50
2018-04-01T20:51:13.715Z,2.00
2018-04-01T20:53:40.778Z,3.83
2018-04-01T20:56:07.777Z,4.70
2018-04-01T20:58:34.671Z,3.70
2018-04-01T21:01:01.597Z,2.30
2018-04-01T21:03:28.621Z,2.70
2018-04-01T21:05:55.505Z,2.13
2018-04-01T21:08:22.570Z,2.20
2018-04-01T21:10:49.751Z,2.20
2018-04-01T21:13:16.656Z,1.90
2018-04-01T21:15:43.587Z,1.93
2018-04-01T21:18:10.540Z,2.00
2018-04-01T21:20:37.447Z,2.10
2018-04-01T21:23:04.556Z,2.30
2018-04-01T21:25:31.620Z,1.87
2018-04-01T21:27:58.593Z,2.07
2018-04-01T21:30:25.781Z,1.90
2018-04-01T21:32:52.752Z,2.00
2018-04-01T21:35:19.734Z,2.10
2018-04-01T21:37:46.862Z,2.30
2018-04-01T21:40:13.763Z,1.80
2018-04-01T21:42:40.717Z,1.90
2018-04-01T21:45:07.678Z,1.53
2018-04-01T21:47:34.621Z,1.80
2018-04-01T21:50:01.592Z,2.13
2018-04-01T21:52:28.584Z,2.20
2018-04-01T21:54:55.439Z,1.80
2018-04-01T21:57:22.559Z,1.73
2018-04-01T21:59:49.627Z,2.30
2018-04-01T22:02:16.510Z,2.13
2018-04-01T22:04:43.459Z,1.87
2018-04-01T22:07:10.508Z,2.03
2018-04-01T22:09:37.346Z,1.97
2018-04-01T22:12:04.310Z,1.90
2018-04-01T22:14:31.456Z,2.00
2018-04-01T22:16:58.324Z,1.93
2018-04-01T22:19:25.249Z,1.80
2018-04-01T22:21:52.379Z,2.13
2018-04-01T22:24:19.295Z,2.10
2018-04-01T22:26:46.281Z,2.13
2018-04-01T22:29:13.297Z,2.37
2018-04-01T22:31:40.271Z,2.13
2018-04-01T22:34:07.258Z,2.30
2018-04-01T22:36:34.465Z,2.47
2018-04-01T22:39:01.345Z,2.37
2018-04-01T22:41:28.334Z,2.67
2018-04-01T22:43:55.360Z,2.10
2018-04-01T22:46:22.391Z,2.37
2018-04-01T22:48:49.420Z,2.27
2018-04-01T22:51:16.554Z,2.70
2018-04-01T22:53:43.517Z,2.77
2018-04-01T22:56:10.629Z,2.27
2018-04-01T22:58:37.652Z,2.63
2018-04-01T23:01:04.514Z,2.30
2018-04-01T23:03:31.494Z,2.60
2018-04-01T23:05:58.378Z,2.37
2018-04-01T23:08:25.305Z,2.63
2018-04-01T23:10:52.378Z,2.70
2018-04-01T23:13:19.328Z,2.70
2018-04-01T23:15:46.239Z,2.63
2018-04-01T23:18:14.401Z,2.70
2018-04-01T23:20:41.306Z,2.57
2018-04-01T23:23:08.300Z,2.90
2018-04-01T23:25:35.341Z,2.57
2018-04-01T23:28:02.289Z,2.50
2018-04-01T23:30:29.215Z,2.30
2018-04-01T23:32:56.281Z,2.47
2018-04-01T23:35:23.236Z,2.03
2018-04-01T23:37:50.316Z,1.97
2018-04-01T23:40:17.389Z,1.80
2018-04-01T23:42:44.312Z,2.03
2018-04-01T23:45:11.293Z,1.90
2018-04-01T23:47:38.499Z,1.80
2018-04-01T23:50:05.453Z,2.03
2018-04-01T23:52:32.455Z,1.93
2018-04-01T23:54:59.352Z,2.00
2018-04-01T23:57:26.321Z,2.00
2018-04-01T23:59:53.317Z,1.93
